KEVW

Evanston-Uinta County Burns Field Airport

Evanston, Wyoming, USA
METAR KEVW 180653Z AUTO 18010KT 10SM CLR 02/M09 A2971 RMK AO2 SLP040 T00221094 400611056
Observed Flight Rules
Feb-18 @ 06:53 UTC (23 minutes ago) Visual Flight Rules
Wind Visibility Clouds
180° at 10 knots 10 miles
  • Clear skies
Temperatures Readings
Current 2°C / 36°F
Dewpoint -9°C / 16°F
Humidity 44%
Altimeter 29.71" Hg
Pressure 1004 hPa
Elevation 2177
METAR KEVW 180653Z AUTO 18010KT 10SM CLR 02/M09 A2971 RMK AO2 SLP040 T00221094 400611056
Observed Flight Rules
Feb-18 @ 06:53 UTC
(23 minutes ago)
VFR
Wind Visibility
180° at 10 knots 10 miles
Clouds
  • Clear skies
Temperature Dewpoint
2°C / 36°F -9°C / 16°F
Humidity Altimeter Pressure
44% 29.71" Hg 1004 hPa